sensor_id;sensor_type;location;lat;lon;timestamp;P1;durP1;ratioP1;P2;durP2;ratioP2
38182;SDS011;23991;52.430;10.586;2022-12-10T00:01:36;24.02;;;11.07;;
38182;SDS011;23991;52.430;10.586;2022-12-10T00:04:09;28.90;;;12.35;;
38182;SDS011;23991;52.430;10.586;2022-12-10T00:06:36;23.92;;;11.85;;
38182;SDS011;23991;52.430;10.586;2022-12-10T00:09:04;28.88;;;12.25;;
38182;SDS011;23991;52.430;10.586;2022-12-10T00:11:36;28.85;;;12.05;;
38182;SDS011;23991;52.430;10.586;2022-12-10T00:14:02;24.55;;;12.13;;
38182;SDS011;23991;52.430;10.586;2022-12-10T00:16:28;28.35;;;12.32;;
38182;SDS011;23991;52.430;10.586;2022-12-10T00:18:55;26.58;;;12.13;;
38182;SDS011;23991;52.430;10.586;2022-12-10T00:21:31;29.30;;;12.50;;
38182;SDS011;23991;52.430;10.586;2022-12-10T00:23:58;27.95;;;12.82;;
38182;SDS011;23991;52.430;10.586;2022-12-10T00:26:34;28.75;;;11.60;;
38182;SDS011;23991;52.430;10.586;2022-12-10T00:29:03;26.42;;;12.48;;
38182;SDS011;23991;52.430;10.586;2022-12-10T00:31:30;24.67;;;12.70;;
38182;SDS011;23991;52.430;10.586;2022-12-10T00:33:58;25.50;;;10.63;;
38182;SDS011;23991;52.430;10.586;2022-12-10T00:36:37;28.35;;;12.45;;
38182;SDS011;23991;52.430;10.586;2022-12-10T00:39:08;23.92;;;10.93;;
38182;SDS011;23991;52.430;10.586;2022-12-10T00:41:36;27.55;;;13.32;;
38182;SDS011;23991;52.430;10.586;2022-12-10T00:44:02;24.58;;;11.57;;
38182;SDS011;23991;52.430;10.586;2022-12-10T00:46:27;30.60;;;13.05;;
38182;SDS011;23991;52.430;10.586;2022-12-10T00:48:53;29.33;;;13.30;;
38182;SDS011;23991;52.430;10.586;2022-12-10T00:51:20;30.13;;;13.15;;
38182;SDS011;23991;52.430;10.586;2022-12-10T00:53:48;27.40;;;12.23;;
38182;SDS011;23991;52.430;10.586;2022-12-10T00:56:15;27.88;;;12.43;;
38182;SDS011;23991;52.430;10.586;2022-12-10T00:58:43;29.45;;;13.52;;
38182;SDS011;23991;52.430;10.586;2022-12-10T01:01:10;32.65;;;13.50;;
38182;SDS011;23991;52.430;10.586;2022-12-10T01:03:54;27.45;;;12.63;;
38182;SDS011;23991;52.430;10.586;2022-12-10T01:06:34;29.17;;;12.80;;
38182;SDS011;23991;52.430;10.586;2022-12-10T01:09:05;26.13;;;11.63;;
38182;SDS011;23991;52.430;10.586;2022-12-10T01:11:34;32.60;;;13.77;;
38182;SDS011;23991;52.430;10.586;2022-12-10T01:14:02;29.80;;;11.95;;
38182;SDS011;23991;52.430;10.586;2022-12-10T01:16:28;31.00;;;12.68;;
38182;SDS011;23991;52.430;10.586;2022-12-10T01:18:54;27.20;;;12.27;;
38182;SDS011;23991;52.430;10.586;2022-12-10T01:21:21;29.95;;;12.50;;
38182;SDS011;23991;52.430;10.586;2022-12-10T01:23:48;31.20;;;12.90;;
38182;SDS011;23991;52.430;10.586;2022-12-10T01:26:16;31.63;;;13.23;;
38182;SDS011;23991;52.430;10.586;2022-12-10T01:28:44;29.67;;;12.40;;
38182;SDS011;23991;52.430;10.586;2022-12-10T01:31:12;30.35;;;13.23;;
38182;SDS011;23991;52.430;10.586;2022-12-10T01:36:07;31.88;;;12.13;;
38182;SDS011;23991;52.430;10.586;2022-12-10T01:38:36;28.55;;;13.00;;
38182;SDS011;23991;52.430;10.586;2022-12-10T01:41:02;30.23;;;12.45;;
38182;SDS011;23991;52.430;10.586;2022-12-10T01:43:33;32.72;;;13.05;;
38182;SDS011;23991;52.430;10.586;2022-12-10T01:46:20;36.03;;;14.38;;
38182;SDS011;23991;52.430;10.586;2022-12-10T01:48:46;31.25;;;13.20;;
38182;SDS011;23991;52.430;10.586;2022-12-10T01:51:12;29.50;;;12.00;;
38182;SDS011;23991;52.430;10.586;2022-12-10T01:53:38;36.35;;;14.25;;
38182;SDS011;23991;52.430;10.586;2022-12-10T01:56:09;39.25;;;13.90;;
38182;SDS011;23991;52.430;10.586;2022-12-10T01:58:35;33.20;;;13.65;;
38182;SDS011;23991;52.430;10.586;2022-12-10T02:01:07;30.70;;;12.50;;
38182;SDS011;23991;52.430;10.586;2022-12-10T02:06:07;32.08;;;13.77;;
38182;SDS011;23991;52.430;10.586;2022-12-10T02:08:41;34.17;;;13.27;;
38182;SDS011;23991;52.430;10.586;2022-12-10T02:11:17;33.38;;;13.43;;
38182;SDS011;23991;52.430;10.586;2022-12-10T02:14:09;35.03;;;13.80;;
38182;SDS011;23991;52.430;10.586;2022-12-10T02:16:47;36.20;;;14.93;;
38182;SDS011;23991;52.430;10.586;2022-12-10T02:22:03;37.83;;;13.27;;
38182;SDS011;23991;52.430;10.586;2022-12-10T02:24:30;31.15;;;14.05;;
38182;SDS011;23991;52.430;10.586;2022-12-10T02:27:16;37.88;;;14.27;;
38182;SDS011;23991;52.430;10.586;2022-12-10T02:29:52;36.00;;;13.65;;
38182;SDS011;23991;52.430;10.586;2022-12-10T02:32:22;34.42;;;12.55;;
38182;SDS011;23991;52.430;10.586;2022-12-10T02:34:52;35.10;;;14.18;;
38182;SDS011;23991;52.430;10.586;2022-12-10T02:37:24;38.42;;;14.30;;
38182;SDS011;23991;52.430;10.586;2022-12-10T02:39:55;34.72;;;14.38;;
38182;SDS011;23991;52.430;10.586;2022-12-10T02:42:24;37.72;;;13.95;;
38182;SDS011;23991;52.430;10.586;2022-12-10T02:44:52;40.38;;;15.77;;
38182;SDS011;23991;52.430;10.586;2022-12-10T02:47:21;42.70;;;13.88;;
38182;SDS011;23991;52.430;10.586;2022-12-10T02:49:47;34.47;;;14.45;;
38182;SDS011;23991;52.430;10.586;2022-12-10T02:52:18;40.28;;;14.52;;
38182;SDS011;23991;52.430;10.586;2022-12-10T02:54:45;40.78;;;14.40;;
38182;SDS011;23991;52.430;10.586;2022-12-10T03:02:16;35.63;;;15.32;;
38182;SDS011;23991;52.430;10.586;2022-12-10T03:05:04;48.35;;;15.25;;
38182;SDS011;23991;52.430;10.586;2022-12-10T03:07:58;39.47;;;15.07;;
38182;SDS011;23991;52.430;10.586;2022-12-10T03:13:28;34.47;;;14.07;;
38182;SDS011;23991;52.430;10.586;2022-12-10T03:16:00;41.83;;;15.32;;
38182;SDS011;23991;52.430;10.586;2022-12-10T03:18:27;40.72;;;16.13;;
38182;SDS011;23991;52.430;10.586;2022-12-10T03:20:57;40.85;;;15.30;;
38182;SDS011;23991;52.430;10.586;2022-12-10T03:23:24;43.83;;;15.20;;
38182;SDS011;23991;52.430;10.586;2022-12-10T03:25:52;37.97;;;14.68;;
38182;SDS011;23991;52.430;10.586;2022-12-10T03:28:18;39.20;;;15.48;;
38182;SDS011;23991;52.430;10.586;2022-12-10T03:30:46;35.38;;;14.52;;
38182;SDS011;23991;52.430;10.586;2022-12-10T03:33:13;39.92;;;16.10;;
38182;SDS011;23991;52.430;10.586;2022-12-10T03:35:43;36.25;;;15.32;;
38182;SDS011;23991;52.430;10.586;2022-12-10T03:38:10;38.65;;;15.55;;
38182;SDS011;23991;52.430;10.586;2022-12-10T03:40:37;38.88;;;14.93;;
38182;SDS011;23991;52.430;10.586;2022-12-10T03:43:02;38.53;;;15.82;;
38182;SDS011;23991;52.430;10.586;2022-12-10T03:45:28;39.72;;;16.50;;
38182;SDS011;23991;52.430;10.586;2022-12-10T03:47:53;43.72;;;17.00;;
38182;SDS011;23991;52.430;10.586;2022-12-10T03:50:19;41.60;;;15.90;;
38182;SDS011;23991;52.430;10.586;2022-12-10T03:52:44;42.50;;;15.60;;
38182;SDS011;23991;52.430;10.586;2022-12-10T03:55:10;40.33;;;16.45;;
38182;SDS011;23991;52.430;10.586;2022-12-10T03:57:36;50.33;;;16.77;;
38182;SDS011;23991;52.430;10.586;2022-12-10T04:00:03;44.92;;;17.77;;
38182;SDS011;23991;52.430;10.586;2022-12-10T04:02:30;38.10;;;16.00;;
38182;SDS011;23991;52.430;10.586;2022-12-10T04:04:56;43.72;;;16.65;;
38182;SDS011;23991;52.430;10.586;2022-12-10T04:07:21;41.13;;;16.90;;
38182;SDS011;23991;52.430;10.586;2022-12-10T04:09:47;43.90;;;17.10;;
38182;SDS011;23991;52.430;10.586;2022-12-10T04:12:12;46.60;;;17.88;;
38182;SDS011;23991;52.430;10.586;2022-12-10T04:14:38;42.70;;;17.05;;
38182;SDS011;23991;52.430;10.586;2022-12-10T04:17:22;39.22;;;15.65;;
38182;SDS011;23991;52.430;10.586;2022-12-10T04:19:48;42.05;;;17.13;;
38182;SDS011;23991;52.430;10.586;2022-12-10T04:22:13;44.97;;;18.23;;
38182;SDS011;23991;52.430;10.586;2022-12-10T04:24:57;40.58;;;17.08;;
38182;SDS011;23991;52.430;10.586;2022-12-10T04:27:52;47.85;;;19.35;;
38182;SDS011;23991;52.430;10.586;2022-12-10T04:30:18;33.72;;;14.73;;
38182;SDS011;23991;52.430;10.586;2022-12-10T04:32:43;40.35;;;16.60;;
38182;SDS011;23991;52.430;10.586;2022-12-10T04:35:09;35.60;;;14.95;;
38182;SDS011;23991;52.430;10.586;2022-12-10T04:37:35;39.13;;;16.85;;
38182;SDS011;23991;52.430;10.586;2022-12-10T04:40:01;35.95;;;16.30;;
38182;SDS011;23991;52.430;10.586;2022-12-10T04:42:27;40.38;;;16.95;;
38182;SDS011;23991;52.430;10.586;2022-12-10T04:44:53;40.22;;;16.60;;
38182;SDS011;23991;52.430;10.586;2022-12-10T04:47:18;44.25;;;17.95;;
38182;SDS011;23991;52.430;10.586;2022-12-10T04:49:44;43.22;;;16.70;;
38182;SDS011;23991;52.430;10.586;2022-12-10T04:52:11;42.50;;;16.48;;
38182;SDS011;23991;52.430;10.586;2022-12-10T04:54:37;41.85;;;15.65;;
38182;SDS011;23991;52.430;10.586;2022-12-10T04:57:03;42.88;;;17.10;;
38182;SDS011;23991;52.430;10.586;2022-12-10T04:59:28;45.80;;;17.70;;
38182;SDS011;23991;52.430;10.586;2022-12-10T05:01:54;41.17;;;16.45;;
38182;SDS011;23991;52.430;10.586;2022-12-10T05:04:20;43.03;;;16.13;;
38182;SDS011;23991;52.430;10.586;2022-12-10T05:06:47;37.42;;;15.80;;
38182;SDS011;23991;52.430;10.586;2022-12-10T05:09:14;41.55;;;15.48;;
38182;SDS011;23991;52.430;10.586;2022-12-10T05:11:40;38.55;;;15.85;;
38182;SDS011;23991;52.430;10.586;2022-12-10T05:14:08;37.97;;;15.15;;
38182;SDS011;23991;52.430;10.586;2022-12-10T05:16:35;41.95;;;16.05;;
38182;SDS011;23991;52.430;10.586;2022-12-10T05:19:01;41.03;;;15.65;;
38182;SDS011;23991;52.430;10.586;2022-12-10T05:21:27;38.42;;;15.77;;
38182;SDS011;23991;52.430;10.586;2022-12-10T05:24:14;42.17;;;15.13;;
38182;SDS011;23991;52.430;10.586;2022-12-10T05:26:40;43.38;;;16.70;;
38182;SDS011;23991;52.430;10.586;2022-12-10T05:29:06;41.17;;;14.20;;
38182;SDS011;23991;52.430;10.586;2022-12-10T05:31:32;34.28;;;13.75;;
38182;SDS011;23991;52.430;10.586;2022-12-10T05:33:57;37.40;;;14.38;;
38182;SDS011;23991;52.430;10.586;2022-12-10T05:36:25;29.60;;;12.05;;
38182;SDS011;23991;52.430;10.586;2022-12-10T05:38:55;33.03;;;15.35;;
38182;SDS011;23991;52.430;10.586;2022-12-10T05:41:23;35.42;;;13.95;;
38182;SDS011;23991;52.430;10.586;2022-12-10T05:43:50;40.38;;;15.65;;
38182;SDS011;23991;52.430;10.586;2022-12-10T05:46:20;36.15;;;14.27;;
38182;SDS011;23991;52.430;10.586;2022-12-10T05:48:48;37.53;;;14.45;;
38182;SDS011;23991;52.430;10.586;2022-12-10T05:51:15;39.17;;;14.95;;
38182;SDS011;23991;52.430;10.586;2022-12-10T05:53:43;44.53;;;14.95;;
38182;SDS011;23991;52.430;10.586;2022-12-10T05:56:10;33.60;;;15.05;;
38182;SDS011;23991;52.430;10.586;2022-12-10T05:58:38;38.60;;;14.68;;
38182;SDS011;23991;52.430;10.586;2022-12-10T06:01:08;37.58;;;14.38;;
38182;SDS011;23991;52.430;10.586;2022-12-10T06:03:35;33.63;;;14.77;;
38182;SDS011;23991;52.430;10.586;2022-12-10T06:06:01;31.52;;;14.18;;
38182;SDS011;23991;52.430;10.586;2022-12-10T06:08:26;39.40;;;15.18;;
38182;SDS011;23991;52.430;10.586;2022-12-10T06:10:52;29.52;;;11.65;;
38182;SDS011;23991;52.430;10.586;2022-12-10T06:13:18;33.28;;;12.90;;
38182;SDS011;23991;52.430;10.586;2022-12-10T06:15:44;32.05;;;13.30;;
38182;SDS011;23991;52.430;10.586;2022-12-10T06:18:10;33.15;;;13.05;;
38182;SDS011;23991;52.430;10.586;2022-12-10T06:20:38;30.33;;;13.00;;
38182;SDS011;23991;52.430;10.586;2022-12-10T06:23:04;29.42;;;12.07;;
38182;SDS011;23991;52.430;10.586;2022-12-10T06:25:31;32.30;;;13.15;;
38182;SDS011;23991;52.430;10.586;2022-12-10T06:27:58;27.65;;;11.88;;
38182;SDS011;23991;52.430;10.586;2022-12-10T06:30:23;32.03;;;13.23;;
38182;SDS011;23991;52.430;10.586;2022-12-10T06:32:49;32.13;;;14.18;;
38182;SDS011;23991;52.430;10.586;2022-12-10T06:35:15;30.35;;;14.20;;
38182;SDS011;23991;52.430;10.586;2022-12-10T06:37:40;29.63;;;12.60;;
38182;SDS011;23991;52.430;10.586;2022-12-10T06:40:06;29.17;;;14.02;;
38182;SDS011;23991;52.430;10.586;2022-12-10T06:42:32;34.95;;;14.63;;
38182;SDS011;23991;52.430;10.586;2022-12-10T06:45:16;31.65;;;13.77;;
38182;SDS011;23991;52.430;10.586;2022-12-10T06:47:42;30.85;;;13.32;;
38182;SDS011;23991;52.430;10.586;2022-12-10T06:50:07;32.45;;;13.18;;
38182;SDS011;23991;52.430;10.586;2022-12-10T06:52:33;35.35;;;14.23;;
38182;SDS011;23991;52.430;10.586;2022-12-10T06:54:58;29.92;;;12.23;;
38182;SDS011;23991;52.430;10.586;2022-12-10T06:57:24;31.27;;;14.27;;
38182;SDS011;23991;52.430;10.586;2022-12-10T06:59:49;34.95;;;14.65;;
38182;SDS011;23991;52.430;10.586;2022-12-10T07:02:15;32.17;;;14.77;;
38182;SDS011;23991;52.430;10.586;2022-12-10T07:04:40;33.00;;;14.82;;
38182;SDS011;23991;52.430;10.586;2022-12-10T07:07:06;35.13;;;14.82;;
38182;SDS011;23991;52.430;10.586;2022-12-10T07:09:32;37.42;;;15.90;;
38182;SDS011;23991;52.430;10.586;2022-12-10T07:11:59;31.65;;;13.60;;
38182;SDS011;23991;52.430;10.586;2022-12-10T07:14:25;34.05;;;14.25;;
38182;SDS011;23991;52.430;10.586;2022-12-10T07:16:51;32.00;;;14.48;;
38182;SDS011;23991;52.430;10.586;2022-12-10T07:19:16;33.47;;;14.75;;
38182;SDS011;23991;52.430;10.586;2022-12-10T07:21:43;32.63;;;14.00;;
38182;SDS011;23991;52.430;10.586;2022-12-10T07:24:11;32.83;;;14.30;;
38182;SDS011;23991;52.430;10.586;2022-12-10T07:26:40;33.63;;;14.57;;
38182;SDS011;23991;52.430;10.586;2022-12-10T07:29:08;33.85;;;13.23;;
38182;SDS011;23991;52.430;10.586;2022-12-10T07:31:38;36.88;;;14.15;;
38182;SDS011;23991;52.430;10.586;2022-12-10T07:34:04;31.85;;;14.15;;
38182;SDS011;23991;52.430;10.586;2022-12-10T07:36:29;33.05;;;14.50;;
38182;SDS011;23991;52.430;10.586;2022-12-10T07:38:55;35.58;;;13.90;;
38182;SDS011;23991;52.430;10.586;2022-12-10T07:41:21;33.90;;;14.25;;
38182;SDS011;23991;52.430;10.586;2022-12-10T07:43:48;34.78;;;14.70;;
38182;SDS011;23991;52.430;10.586;2022-12-10T07:48:46;30.85;;;14.07;;
38182;SDS011;23991;52.430;10.586;2022-12-10T07:51:12;34.05;;;13.55;;
38182;SDS011;23991;52.430;10.586;2022-12-10T07:53:38;36.38;;;15.90;;
38182;SDS011;23991;52.430;10.586;2022-12-10T07:56:04;35.40;;;14.32;;
38182;SDS011;23991;52.430;10.586;2022-12-10T07:58:31;34.28;;;14.52;;
38182;SDS011;23991;52.430;10.586;2022-12-10T08:00:57;34.88;;;14.60;;
38182;SDS011;23991;52.430;10.586;2022-12-10T08:03:22;31.08;;;13.32;;
38182;SDS011;23991;52.430;10.586;2022-12-10T08:05:48;40.50;;;18.00;;
38182;SDS011;23991;52.430;10.586;2022-12-10T08:08:25;42.35;;;16.63;;
38182;SDS011;23991;52.430;10.586;2022-12-10T08:10:50;40.47;;;14.95;;
38182;SDS011;23991;52.430;10.586;2022-12-10T08:13:16;38.13;;;14.48;;
38182;SDS011;23991;52.430;10.586;2022-12-10T08:15:41;33.50;;;15.15;;
38182;SDS011;23991;52.430;10.586;2022-12-10T08:18:07;34.38;;;14.70;;
38182;SDS011;23991;52.430;10.586;2022-12-10T08:20:32;40.88;;;15.70;;
38182;SDS011;23991;52.430;10.586;2022-12-10T08:22:58;35.13;;;15.25;;
38182;SDS011;23991;52.430;10.586;2022-12-10T08:25:23;36.92;;;15.52;;
38182;SDS011;23991;52.430;10.586;2022-12-10T08:27:49;36.75;;;14.60;;
38182;SDS011;23991;52.430;10.586;2022-12-10T08:30:15;33.50;;;14.70;;
38182;SDS011;23991;52.430;10.586;2022-12-10T08:32:41;32.88;;;14.55;;
38182;SDS011;23991;52.430;10.586;2022-12-10T08:35:06;36.17;;;15.75;;
38182;SDS011;23991;52.430;10.586;2022-12-10T08:37:32;33.55;;;14.77;;
38182;SDS011;23991;52.430;10.586;2022-12-10T08:39:58;30.63;;;13.90;;
38182;SDS011;23991;52.430;10.586;2022-12-10T08:42:23;33.17;;;14.20;;
38182;SDS011;23991;52.430;10.586;2022-12-10T08:44:49;29.63;;;14.02;;
38182;SDS011;23991;52.430;10.586;2022-12-10T08:47:15;35.92;;;14.60;;
38182;SDS011;23991;52.430;10.586;2022-12-10T08:49:41;39.08;;;14.48;;
38182;SDS011;23991;52.430;10.586;2022-12-10T08:52:06;38.90;;;16.80;;
38182;SDS011;23991;52.430;10.586;2022-12-10T08:54:34;36.75;;;15.63;;
38182;SDS011;23991;52.430;10.586;2022-12-10T08:57:03;36.50;;;15.60;;
38182;SDS011;23991;52.430;10.586;2022-12-10T08:59:45;34.53;;;15.73;;
38182;SDS011;23991;52.430;10.586;2022-12-10T09:02:11;33.97;;;14.57;;
38182;SDS011;23991;52.430;10.586;2022-12-10T09:04:36;35.40;;;15.43;;
38182;SDS011;23991;52.430;10.586;2022-12-10T09:07:04;34.80;;;15.20;;
38182;SDS011;23991;52.430;10.586;2022-12-10T09:09:30;37.05;;;15.50;;
38182;SDS011;23991;52.430;10.586;2022-12-10T09:11:56;38.03;;;16.92;;
38182;SDS011;23991;52.430;10.586;2022-12-10T09:14:22;42.10;;;16.42;;
38182;SDS011;23991;52.430;10.586;2022-12-10T09:16:48;31.75;;;14.25;;
38182;SDS011;23991;52.430;10.586;2022-12-10T09:19:14;40.03;;;15.80;;
38182;SDS011;23991;52.430;10.586;2022-12-10T09:21:42;38.90;;;16.10;;
38182;SDS011;23991;52.430;10.586;2022-12-10T09:24:08;34.30;;;15.05;;
38182;SDS011;23991;52.430;10.586;2022-12-10T09:26:34;34.28;;;14.57;;
38182;SDS011;23991;52.430;10.586;2022-12-10T09:29:00;34.80;;;14.30;;
38182;SDS011;23991;52.430;10.586;2022-12-10T09:31:25;35.60;;;15.88;;
38182;SDS011;23991;52.430;10.586;2022-12-10T09:33:52;35.17;;;14.98;;
38182;SDS011;23991;52.430;10.586;2022-12-10T09:36:18;51.85;;;24.42;;
38182;SDS011;23991;52.430;10.586;2022-12-10T09:38:44;39.65;;;17.73;;
38182;SDS011;23991;52.430;10.586;2022-12-10T09:43:56;32.15;;;15.63;;
38182;SDS011;23991;52.430;10.586;2022-12-10T09:51:40;26.15;;;11.48;;
38182;SDS011;23991;52.430;10.586;2022-12-10T09:56:43;30.85;;;13.35;;
38182;SDS011;23991;52.430;10.586;2022-12-10T09:59:20;30.42;;;13.52;;
38182;SDS011;23991;52.430;10.586;2022-12-10T10:01:50;36.42;;;13.93;;
38182;SDS011;23991;52.430;10.586;2022-12-10T10:04:26;29.95;;;11.95;;
38182;SDS011;23991;52.430;10.586;2022-12-10T10:06:52;32.47;;;12.05;;
38182;SDS011;23991;52.430;10.586;2022-12-10T10:09:17;25.17;;;11.27;;
38182;SDS011;23991;52.430;10.586;2022-12-10T10:11:44;26.55;;;11.95;;
38182;SDS011;23991;52.430;10.586;2022-12-10T10:14:12;34.67;;;14.45;;
38182;SDS011;23991;52.430;10.586;2022-12-10T10:16:51;35.20;;;13.48;;
38182;SDS011;23991;52.430;10.586;2022-12-10T10:19:21;38.03;;;14.95;;
38182;SDS011;23991;52.430;10.586;2022-12-10T10:21:52;28.77;;;14.05;;
38182;SDS011;23991;52.430;10.586;2022-12-10T10:24:20;31.55;;;13.68;;
38182;SDS011;23991;52.430;10.586;2022-12-10T10:29:17;28.50;;;14.15;;
38182;SDS011;23991;52.430;10.586;2022-12-10T10:31:45;31.77;;;14.18;;
38182;SDS011;23991;52.430;10.586;2022-12-10T10:34:14;29.33;;;14.15;;
38182;SDS011;23991;52.430;10.586;2022-12-10T10:36:43;26.27;;;12.73;;
38182;SDS011;23991;52.430;10.586;2022-12-10T10:39:10;28.63;;;14.02;;
38182;SDS011;23991;52.430;10.586;2022-12-10T10:41:57;24.98;;;12.13;;
38182;SDS011;23991;52.430;10.586;2022-12-10T10:44:25;26.25;;;12.68;;
38182;SDS011;23991;52.430;10.586;2022-12-10T10:46:53;28.20;;;14.23;;
38182;SDS011;23991;52.430;10.586;2022-12-10T10:51:50;25.75;;;12.20;;
38182;SDS011;23991;52.430;10.586;2022-12-10T10:57:27;30.13;;;12.98;;
38182;SDS011;23991;52.430;10.586;2022-12-10T11:00:34;28.05;;;12.98;;
38182;SDS011;23991;52.430;10.586;2022-12-10T11:02:53;27.50;;;12.95;;
38182;SDS011;23991;52.430;10.586;2022-12-10T11:05:23;27.58;;;13.02;;
38182;SDS011;23991;52.430;10.586;2022-12-10T11:07:59;23.10;;;11.13;;
38182;SDS011;23991;52.430;10.586;2022-12-10T11:10:30;20.40;;;10.88;;
38182;SDS011;23991;52.430;10.586;2022-12-10T11:13:06;25.80;;;13.35;;
38182;SDS011;23991;52.430;10.586;2022-12-10T11:15:43;23.27;;;11.23;;
38182;SDS011;23991;52.430;10.586;2022-12-10T11:23:37;24.38;;;11.50;;
38182;SDS011;23991;52.430;10.586;2022-12-10T11:34:30;26.90;;;12.55;;
38182;SDS011;23991;52.430;10.586;2022-12-10T11:42:26;31.45;;;13.32;;
38182;SDS011;23991;52.430;10.586;2022-12-10T11:45:06;27.10;;;13.82;;
38182;SDS011;23991;52.430;10.586;2022-12-10T11:50:26;27.63;;;12.55;;
38182;SDS011;23991;52.430;10.586;2022-12-10T11:55:43;26.15;;;12.68;;
38182;SDS011;23991;52.430;10.586;2022-12-10T12:01:02;25.73;;;11.88;;
38182;SDS011;23991;52.430;10.586;2022-12-10T12:07:14;25.73;;;13.05;;
38182;SDS011;23991;52.430;10.586;2022-12-10T12:09:56;24.80;;;12.50;;
38182;SDS011;23991;52.430;10.586;2022-12-10T12:12:48;27.13;;;11.70;;
38182;SDS011;23991;52.430;10.586;2022-12-10T12:15:28;24.13;;;11.35;;
38182;SDS011;23991;52.430;10.586;2022-12-10T12:18:59;21.75;;;11.60;;
38182;SDS011;23991;52.430;10.586;2022-12-10T12:21:11;21.58;;;10.35;;
38182;SDS011;23991;52.430;10.586;2022-12-10T12:26:31;25.55;;;13.63;;
38182;SDS011;23991;52.430;10.586;2022-12-10T12:31:39;25.88;;;13.00;;
38182;SDS011;23991;52.430;10.586;2022-12-10T12:37:12;24.58;;;12.57;;
38182;SDS011;23991;52.430;10.586;2022-12-10T12:39:52;23.00;;;12.15;;
38182;SDS011;23991;52.430;10.586;2022-12-10T12:42:32;22.63;;;11.80;;
38182;SDS011;23991;52.430;10.586;2022-12-10T12:45:16;21.48;;;10.93;;
38182;SDS011;23991;52.430;10.586;2022-12-10T12:50:41;25.45;;;11.90;;
38182;SDS011;23991;52.430;10.586;2022-12-10T12:53:21;23.95;;;12.02;;
38182;SDS011;23991;52.430;10.586;2022-12-10T12:55:56;22.70;;;11.57;;
38182;SDS011;23991;52.430;10.586;2022-12-10T12:58:47;21.25;;;10.95;;
38182;SDS011;23991;52.430;10.586;2022-12-10T13:04:41;27.30;;;12.45;;
38182;SDS011;23991;52.430;10.586;2022-12-10T13:12:31;20.67;;;12.00;;
38182;SDS011;23991;52.430;10.586;2022-12-10T13:18:39;19.27;;;10.10;;
38182;SDS011;23991;52.430;10.586;2022-12-10T13:21:31;19.92;;;11.13;;
38182;SDS011;23991;52.430;10.586;2022-12-10T13:24:11;21.17;;;11.23;;
38182;SDS011;23991;52.430;10.586;2022-12-10T13:26:40;20.50;;;10.93;;
38182;SDS011;23991;52.430;10.586;2022-12-10T13:29:27;20.15;;;10.10;;
38182;SDS011;23991;52.430;10.586;2022-12-10T13:31:57;20.60;;;10.93;;
38182;SDS011;23991;52.430;10.586;2022-12-10T13:34:46;20.80;;;11.20;;
38182;SDS011;23991;52.430;10.586;2022-12-10T13:37:31;24.15;;;12.43;;
38182;SDS011;23991;52.430;10.586;2022-12-10T13:42:35;23.58;;;12.70;;
38182;SDS011;23991;52.430;10.586;2022-12-10T13:45:27;22.38;;;11.25;;
38182;SDS011;23991;52.430;10.586;2022-12-10T13:50:44;20.45;;;11.43;;
38182;SDS011;23991;52.430;10.586;2022-12-10T13:53:34;20.90;;;10.75;;
38182;SDS011;23991;52.430;10.586;2022-12-10T13:56:16;20.75;;;10.52;;
38182;SDS011;23991;52.430;10.586;2022-12-10T14:05:33;20.83;;;11.55;;
38182;SDS011;23991;52.430;10.586;2022-12-10T14:08:23;20.63;;;11.48;;
38182;SDS011;23991;52.430;10.586;2022-12-10T14:10:53;21.10;;;11.77;;
38182;SDS011;23991;52.430;10.586;2022-12-10T14:13:26;22.60;;;10.57;;
38182;SDS011;23991;52.430;10.586;2022-12-10T14:15:58;22.65;;;11.40;;
38182;SDS011;23991;52.430;10.586;2022-12-10T14:18:26;23.45;;;11.23;;
38182;SDS011;23991;52.430;10.586;2022-12-10T14:20:53;24.73;;;12.52;;
38182;SDS011;23991;52.430;10.586;2022-12-10T14:23:22;20.80;;;11.23;;
38182;SDS011;23991;52.430;10.586;2022-12-10T14:28:48;19.92;;;10.10;;
38182;SDS011;23991;52.430;10.586;2022-12-10T14:31:23;25.50;;;11.93;;
38182;SDS011;23991;52.430;10.586;2022-12-10T14:33:52;30.27;;;12.70;;
38182;SDS011;23991;52.430;10.586;2022-12-10T14:36:30;25.70;;;10.93;;
38182;SDS011;23991;52.430;10.586;2022-12-10T14:38:59;26.75;;;11.18;;
38182;SDS011;23991;52.430;10.586;2022-12-10T14:41:26;23.67;;;10.45;;
38182;SDS011;23991;52.430;10.586;2022-12-10T14:43:54;22.88;;;11.82;;
38182;SDS011;23991;52.430;10.586;2022-12-10T14:46:23;25.50;;;11.82;;
38182;SDS011;23991;52.430;10.586;2022-12-10T14:48:52;24.65;;;11.25;;
38182;SDS011;23991;52.430;10.586;2022-12-10T14:51:21;23.63;;;11.20;;
38182;SDS011;23991;52.430;10.586;2022-12-10T14:53:48;23.73;;;11.90;;
38182;SDS011;23991;52.430;10.586;2022-12-10T14:59:15;25.00;;;11.82;;
38182;SDS011;23991;52.430;10.586;2022-12-10T15:01:50;25.88;;;12.57;;
38182;SDS011;23991;52.430;10.586;2022-12-10T15:04:21;23.98;;;12.00;;
38182;SDS011;23991;52.430;10.586;2022-12-10T15:06:49;23.80;;;11.77;;
38182;SDS011;23991;52.430;10.586;2022-12-10T15:09:16;27.38;;;12.48;;
38182;SDS011;23991;52.430;10.586;2022-12-10T15:11:45;26.85;;;11.68;;
38182;SDS011;23991;52.430;10.586;2022-12-10T15:14:19;29.60;;;13.48;;
38182;SDS011;23991;52.430;10.586;2022-12-10T15:16:45;25.90;;;12.60;;
38182;SDS011;23991;52.430;10.586;2022-12-10T15:19:45;27.02;;;11.40;;
38182;SDS011;23991;52.430;10.586;2022-12-10T15:22:17;23.30;;;11.93;;
38182;SDS011;23991;52.430;10.586;2022-12-10T15:24:44;26.77;;;11.35;;
38182;SDS011;23991;52.430;10.586;2022-12-10T15:27:19;39.10;;;18.48;;
38182;SDS011;23991;52.430;10.586;2022-12-10T15:29:46;28.95;;;14.82;;
38182;SDS011;23991;52.430;10.586;2022-12-10T15:32:14;26.02;;;11.98;;
38182;SDS011;23991;52.430;10.586;2022-12-10T15:34:45;26.20;;;12.60;;
38182;SDS011;23991;52.430;10.586;2022-12-10T15:37:17;26.65;;;13.20;;
38182;SDS011;23991;52.430;10.586;2022-12-10T15:39:55;24.35;;;12.85;;
38182;SDS011;23991;52.430;10.586;2022-12-10T15:42:42;21.63;;;10.70;;
38182;SDS011;23991;52.430;10.586;2022-12-10T15:45:15;25.35;;;12.18;;
38182;SDS011;23991;52.430;10.586;2022-12-10T15:47:40;26.55;;;12.25;;
38182;SDS011;23991;52.430;10.586;2022-12-10T15:50:06;27.63;;;12.73;;
38182;SDS011;23991;52.430;10.586;2022-12-10T15:52:33;24.02;;;10.70;;
38182;SDS011;23991;52.430;10.586;2022-12-10T15:54:59;31.30;;;13.48;;
38182;SDS011;23991;52.430;10.586;2022-12-10T15:57:32;26.88;;;12.52;;
38182;SDS011;23991;52.430;10.586;2022-12-10T16:00:04;24.00;;;11.90;;
38182;SDS011;23991;52.430;10.586;2022-12-10T16:07:54;34.08;;;14.68;;
38182;SDS011;23991;52.430;10.586;2022-12-10T16:10:26;26.55;;;12.23;;
38182;SDS011;23991;52.430;10.586;2022-12-10T16:13:00;27.40;;;13.82;;
38182;SDS011;23991;52.430;10.586;2022-12-10T16:15:30;30.95;;;13.73;;
38182;SDS011;23991;52.430;10.586;2022-12-10T16:18:09;29.50;;;12.85;;
38182;SDS011;23991;52.430;10.586;2022-12-10T16:20:41;28.90;;;12.52;;